createdAt,value
2023-05-19T00:01:34.322Z,0.00
2023-05-19T00:06:34.191Z,0.00
2023-05-19T00:11:34.076Z,0.00
2023-05-19T00:16:34.007Z,0.00
2023-05-19T00:21:33.953Z,0.00
2023-05-19T00:26:34.245Z,0.00
2023-05-19T00:31:36.817Z,0.00
2023-05-19T00:36:33.731Z,0.00
2023-05-19T00:41:33.729Z,0.00
2023-05-19T00:46:33.615Z,0.00
2023-05-19T00:51:33.554Z,0.00
2023-05-19T00:56:33.446Z,0.00
2023-05-19T01:01:33.515Z,0.00
2023-05-19T01:06:33.334Z,0.00
2023-05-19T01:11:33.296Z,0.00
2023-05-19T01:16:33.282Z,0.00
2023-05-19T01:21:33.157Z,0.00
2023-05-19T01:26:33.069Z,0.00
2023-05-19T01:31:36.090Z,0.00
2023-05-19T01:36:32.919Z,0.00
2023-05-19T01:41:32.911Z,0.00
2023-05-19T01:46:33.062Z,0.00
2023-05-19T01:51:32.891Z,0.00
2023-05-19T01:56:32.695Z,0.00
2023-05-19T02:01:32.650Z,0.00
2023-05-19T02:06:32.521Z,0.00
2023-05-19T02:11:32.485Z,0.00
2023-05-19T02:16:32.395Z,0.00
2023-05-19T02:21:32.350Z,0.00
2023-05-19T02:26:32.242Z,0.00
2023-05-19T02:31:35.247Z,0.00
2023-05-19T02:36:32.122Z,0.00
2023-05-19T02:41:32.085Z,0.00
2023-05-19T02:46:32.006Z,0.00
2023-05-19T02:51:32.002Z,0.00
2023-05-19T02:56:31.894Z,0.00
2023-05-19T03:01:31.930Z,0.00
2023-05-19T03:06:31.750Z,0.00
2023-05-19T03:11:31.722Z,5.62
2023-05-19T03:16:31.673Z,5.62
2023-05-19T03:21:31.555Z,11.25
2023-05-19T03:26:31.484Z,16.88
2023-05-19T03:31:34.407Z,28.12
2023-05-19T03:36:31.327Z,39.38
2023-05-19T03:41:31.339Z,50.62
2023-05-19T03:46:31.193Z,61.88
2023-05-19T03:51:31.196Z,73.12
2023-05-19T03:56:31.101Z,90.00
2023-05-19T04:01:31.073Z,95.62
2023-05-19T04:06:30.967Z,106.88
2023-05-19T04:11:30.991Z,112.50
2023-05-19T04:16:30.954Z,123.75
2023-05-19T04:21:30.792Z,135.00
2023-05-19T04:26:30.693Z,140.62
2023-05-19T04:31:33.715Z,146.25
2023-05-19T04:36:30.605Z,140.62
2023-05-19T04:41:30.570Z,146.25
2023-05-19T04:46:30.490Z,157.50
2023-05-19T04:51:30.670Z,168.75
2023-05-19T04:56:30.371Z,174.38
2023-05-19T05:01:30.306Z,185.62
2023-05-19T05:06:30.157Z,196.88
2023-05-19T05:11:30.127Z,213.75
2023-05-19T05:16:30.117Z,241.88
2023-05-19T05:21:30.245Z,270.00
2023-05-19T05:26:29.917Z,303.75
2023-05-19T05:31:32.874Z,331.88
2023-05-19T05:36:29.779Z,365.62
2023-05-19T05:41:29.741Z,433.12
2023-05-19T05:46:29.747Z,495.00
2023-05-19T05:51:29.645Z,573.75
2023-05-19T05:56:29.556Z,630.00
2023-05-19T06:01:29.803Z,663.75
2023-05-19T06:06:29.415Z,855.00
2023-05-19T06:11:29.365Z,922.50
2023-05-19T06:16:29.482Z,832.50
2023-05-19T06:21:29.324Z,838.12
2023-05-19T06:26:29.203Z,860.62
2023-05-19T06:31:32.300Z,866.25
2023-05-19T06:36:28.997Z,933.75
2023-05-19T06:45:24.831Z,2486.25
2023-05-19T06:50:32.776Z,2300.62
2023-05-19T06:55:24.645Z,2120.62
2023-05-19T07:00:24.642Z,2193.75
2023-05-19T07:05:24.548Z,2227.50
2023-05-19T07:10:24.595Z,2244.38
2023-05-19T07:15:24.539Z,2553.75
2023-05-19T07:20:24.385Z,2373.75
2023-05-19T07:25:24.292Z,2148.75
2023-05-19T07:30:24.319Z,1912.50
2023-05-19T07:35:27.429Z,1991.25
2023-05-19T07:40:24.104Z,1653.75
2023-05-19T07:45:24.072Z,2289.38
2023-05-19T07:50:24.083Z,2030.62
2023-05-19T07:55:23.962Z,1974.38
2023-05-19T08:00:23.831Z,2171.25
2023-05-19T08:05:23.836Z,2373.75
2023-05-19T08:10:23.799Z,2272.50
2023-05-19T08:15:23.679Z,1513.12
2023-05-19T08:20:23.612Z,1192.50
2023-05-19T08:25:23.579Z,652.50
2023-05-19T08:30:23.483Z,866.25
2023-05-19T08:35:26.459Z,748.12
2023-05-19T08:40:23.401Z,804.38
2023-05-19T08:45:23.353Z,765.00
2023-05-19T08:50:23.327Z,759.38
2023-05-19T08:55:23.252Z,866.25
2023-05-19T09:00:23.269Z,995.62
2023-05-19T09:05:23.156Z,950.62
2023-05-19T09:10:22.941Z,928.12
2023-05-19T09:15:22.941Z,888.75
2023-05-19T09:20:22.874Z,877.50
2023-05-19T09:25:22.908Z,798.75
2023-05-19T09:30:22.733Z,748.12
2023-05-19T09:35:25.738Z,787.50
2023-05-19T09:40:22.577Z,798.75
2023-05-19T09:45:22.699Z,894.38
2023-05-19T09:50:22.412Z,1057.50
2023-05-19T09:55:22.372Z,933.75
2023-05-19T10:00:22.325Z,838.12
2023-05-19T10:05:22.301Z,753.75
2023-05-19T10:10:22.160Z,849.38
2023-05-19T10:15:23.338Z,978.75
2023-05-19T10:20:22.061Z,973.12
2023-05-19T10:25:22.055Z,967.50
2023-05-19T10:30:21.917Z,973.12
2023-05-19T10:35:24.965Z,973.12
2023-05-19T10:40:21.849Z,1068.75
2023-05-19T10:45:21.721Z,871.88
2023-05-19T10:50:21.655Z,967.50
2023-05-19T10:55:21.660Z,860.62
2023-05-19T11:00:21.515Z,973.12
2023-05-19T11:05:21.461Z,916.88
2023-05-19T11:15:21.420Z,697.50
2023-05-19T11:20:21.238Z,759.38
2023-05-19T11:25:21.269Z,821.25
2023-05-19T11:30:21.148Z,770.62
2023-05-19T11:35:24.062Z,545.62
2023-05-19T11:40:20.952Z,720.00
2023-05-19T11:45:20.923Z,838.12
2023-05-19T11:50:20.850Z,905.62
2023-05-19T11:55:20.819Z,826.88
2023-05-19T12:00:20.700Z,759.38
2023-05-19T12:05:20.879Z,753.75
2023-05-19T12:10:20.578Z,753.75
2023-05-19T12:15:20.548Z,686.25
2023-05-19T12:20:20.445Z,720.00
2023-05-19T12:25:20.439Z,641.25
2023-05-19T12:30:20.317Z,742.50
2023-05-19T12:35:23.308Z,725.62
2023-05-19T12:40:20.234Z,585.00
2023-05-19T12:45:20.201Z,528.75
2023-05-19T12:50:20.128Z,540.00
2023-05-19T12:55:20.074Z,450.00
2023-05-19T13:00:20.037Z,495.00
2023-05-19T13:05:19.961Z,483.75
2023-05-19T13:10:19.842Z,438.75
2023-05-19T13:15:19.853Z,416.25
2023-05-19T13:20:19.655Z,517.50
2023-05-19T13:25:19.715Z,579.38
2023-05-19T13:30:19.513Z,534.38
2023-05-19T13:35:22.568Z,528.75
2023-05-19T13:40:19.417Z,556.88
2023-05-19T13:45:19.364Z,556.88
2023-05-19T13:50:19.266Z,534.38
2023-05-19T13:55:19.234Z,517.50
2023-05-19T14:00:19.166Z,495.00
2023-05-19T14:05:19.135Z,523.12
2023-05-19T14:10:19.013Z,466.88
2023-05-19T14:15:18.979Z,500.62
2023-05-19T14:20:18.925Z,624.38
2023-05-19T14:25:18.947Z,624.38
2023-05-19T14:30:18.742Z,551.25
2023-05-19T14:35:21.732Z,590.62
2023-05-19T14:40:18.632Z,720.00
2023-05-19T14:45:18.597Z,725.62
2023-05-19T14:50:18.591Z,1001.25
2023-05-19T14:55:18.535Z,922.50
2023-05-19T15:00:18.415Z,911.25
2023-05-19T15:05:18.296Z,714.38
2023-05-19T15:10:18.204Z,652.50
2023-05-19T15:15:18.197Z,855.00
2023-05-19T15:20:18.117Z,523.12
2023-05-19T15:25:18.093Z,461.25
2023-05-19T15:30:17.950Z,466.88
2023-05-19T15:35:20.985Z,551.25
2023-05-19T15:40:17.807Z,568.12
2023-05-19T15:45:17.849Z,540.00
2023-05-19T15:50:17.780Z,545.62
2023-05-19T15:55:17.685Z,495.00
2023-05-19T16:00:17.587Z,466.88
2023-05-19T16:05:17.587Z,478.12
2023-05-19T16:10:17.422Z,433.12
2023-05-19T16:15:17.413Z,438.75
2023-05-19T16:20:17.315Z,416.25
2023-05-19T16:25:17.293Z,433.12
2023-05-19T16:30:17.172Z,376.88
2023-05-19T16:35:20.281Z,376.88
2023-05-19T16:40:17.118Z,360.00
2023-05-19T16:45:17.131Z,331.88
2023-05-19T16:50:17.048Z,303.75
2023-05-19T16:55:17.020Z,258.75
2023-05-19T17:00:16.905Z,230.62
2023-05-19T17:05:16.905Z,230.62
2023-05-19T17:10:16.738Z,213.75
2023-05-19T17:15:16.838Z,185.62
2023-05-19T17:20:16.633Z,185.62
2023-05-19T17:25:16.558Z,185.62
2023-05-19T17:30:16.448Z,191.25
2023-05-19T17:35:19.413Z,180.00
2023-05-19T17:40:16.274Z,146.25
2023-05-19T17:45:16.242Z,140.62
2023-05-19T17:50:16.179Z,146.25
2023-05-19T17:55:16.148Z,135.00
2023-05-19T18:00:16.038Z,112.50
2023-05-19T18:05:16.054Z,95.62
2023-05-19T18:10:15.874Z,84.38
2023-05-19T18:15:15.825Z,73.12
2023-05-19T18:20:15.741Z,73.12
2023-05-19T18:25:15.715Z,73.12
2023-05-19T18:30:15.669Z,61.88
2023-05-19T18:35:18.597Z,39.38
2023-05-19T18:40:15.515Z,33.75
2023-05-19T18:45:15.465Z,22.50
2023-05-19T18:50:15.449Z,16.88
2023-05-19T18:55:15.353Z,11.25
2023-05-19T19:00:15.253Z,5.62
2023-05-19T19:05:15.330Z,5.62
2023-05-19T19:10:15.143Z,0.00
2023-05-19T19:15:15.064Z,0.00
2023-05-19T19:20:15.004Z,0.00
2023-05-19T19:25:14.983Z,0.00
2023-05-19T19:30:14.870Z,0.00
2023-05-19T19:35:17.796Z,0.00
2023-05-19T19:40:14.697Z,0.00
2023-05-19T19:45:15.814Z,0.00
2023-05-19T19:50:14.549Z,0.00
2023-05-19T19:55:14.532Z,0.00
2023-05-19T20:00:14.398Z,0.00
2023-05-19T20:05:14.485Z,0.00
2023-05-19T20:10:14.249Z,0.00
2023-05-19T20:15:14.304Z,0.00
2023-05-19T20:20:14.198Z,0.00
2023-05-19T20:25:14.110Z,0.00
2023-05-19T20:30:14.041Z,0.00
2023-05-19T20:35:16.978Z,0.00
2023-05-19T20:40:13.897Z,0.00
2023-05-19T20:45:13.840Z,0.00
2023-05-19T20:50:13.768Z,0.00
2023-05-19T20:55:13.720Z,0.00
2023-05-19T21:00:13.626Z,0.00
2023-05-19T21:05:13.643Z,0.00
2023-05-19T21:10:13.488Z,0.00
2023-05-19T21:15:13.710Z,0.00
2023-05-19T21:20:13.374Z,0.00
2023-05-19T21:25:13.340Z,0.00
2023-05-19T21:30:13.228Z,0.00
2023-05-19T21:35:16.277Z,0.00
2023-05-19T21:40:13.090Z,0.00
2023-05-19T21:45:13.052Z,0.00
2023-05-19T21:50:12.986Z,0.00
2023-05-19T21:55:12.943Z,0.00
2023-05-19T22:00:12.859Z,0.00
2023-05-19T22:05:12.828Z,0.00
2023-05-19T22:10:12.713Z,0.00
2023-05-19T22:15:12.678Z,0.00
2023-05-19T22:20:12.564Z,0.00
2023-05-19T22:25:12.620Z,0.00
2023-05-19T22:30:12.435Z,0.00
2023-05-19T22:35:15.377Z,0.00
2023-05-19T22:40:12.287Z,0.00
2023-05-19T22:45:12.217Z,0.00
2023-05-19T22:50:12.197Z,0.00
2023-05-19T22:55:12.118Z,0.00
2023-05-19T23:00:12.007Z,0.00
2023-05-19T23:05:11.977Z,0.00
2023-05-19T23:10:11.885Z,0.00
2023-05-19T23:15:11.864Z,0.00
2023-05-19T23:20:11.742Z,0.00
2023-05-19T23:25:11.710Z,0.00
2023-05-19T23:30:11.618Z,0.00
2023-05-19T23:35:14.741Z,0.00
2023-05-19T23:40:11.450Z,0.00
2023-05-19T23:45:11.409Z,0.00
2023-05-19T23:50:11.297Z,0.00
2023-05-19T23:55:11.256Z,0.00
